sensor_id;sensor_type;location;lat;lon;timestamp;temperature;humidity
25328;DHT22;13279;51.300;12.394;2023-04-07T00:00:08;4.60;99.90
25328;DHT22;13279;51.300;12.394;2023-04-07T00:02:39;4.60;99.90
25328;DHT22;13279;51.300;12.394;2023-04-07T00:05:07;4.60;99.90
25328;DHT22;13279;51.300;12.394;2023-04-07T00:07:35;4.60;99.90
25328;DHT22;13279;51.300;12.394;2023-04-07T00:10:02;4.60;99.90
25328;DHT22;13279;51.300;12.394;2023-04-07T00:12:30;4.60;99.90
25328;DHT22;13279;51.300;12.394;2023-04-07T00:14:59;4.60;99.90
25328;DHT22;13279;51.300;12.394;2023-04-07T00:17:26;4.50;99.90
25328;DHT22;13279;51.300;12.394;2023-04-07T00:19:53;4.60;99.90
25328;DHT22;13279;51.300;12.394;2023-04-07T00:22:21;4.50;99.90
25328;DHT22;13279;51.300;12.394;2023-04-07T00:24:49;4.50;99.90
25328;DHT22;13279;51.300;12.394;2023-04-07T00:27:16;4.50;99.90
25328;DHT22;13279;51.300;12.394;2023-04-07T00:29:44;4.50;99.90
25328;DHT22;13279;51.300;12.394;2023-04-07T00:32:13;4.50;99.90
25328;DHT22;13279;51.300;12.394;2023-04-07T00:34:41;4.50;99.90
25328;DHT22;13279;51.300;12.394;2023-04-07T00:37:08;4.50;99.90
25328;DHT22;13279;51.300;12.394;2023-04-07T00:39:36;4.50;99.90
25328;DHT22;13279;51.300;12.394;2023-04-07T00:42:04;4.50;99.90
25328;DHT22;13279;51.300;12.394;2023-04-07T00:44:32;4.40;99.90
25328;DHT22;13279;51.300;12.394;2023-04-07T00:47:00;4.40;99.90
25328;DHT22;13279;51.300;12.394;2023-04-07T00:49:29;4.40;99.90
25328;DHT22;13279;51.300;12.394;2023-04-07T00:51:57;4.30;99.90
25328;DHT22;13279;51.300;12.394;2023-04-07T00:54:25;4.30;99.90
25328;DHT22;13279;51.300;12.394;2023-04-07T00:56:53;4.30;99.90
25328;DHT22;13279;51.300;12.394;2023-04-07T00:59:21;4.20;99.90
25328;DHT22;13279;51.300;12.394;2023-04-07T01:01:54;4.20;99.90
25328;DHT22;13279;51.300;12.394;2023-04-07T01:04:28;4.10;99.90
25328;DHT22;13279;51.300;12.394;2023-04-07T01:07:04;4.10;99.90
25328;DHT22;13279;51.300;12.394;2023-04-07T01:09:44;4.10;99.90
25328;DHT22;13279;51.300;12.394;2023-04-07T01:12:21;4.00;99.90
25328;DHT22;13279;51.300;12.394;2023-04-07T01:14:53;4.00;99.90
25328;DHT22;13279;51.300;12.394;2023-04-07T01:17:34;4.00;99.90
25328;DHT22;13279;51.300;12.394;2023-04-07T01:20:04;4.00;99.90
25328;DHT22;13279;51.300;12.394;2023-04-07T01:22:40;3.90;99.90
25328;DHT22;13279;51.300;12.394;2023-04-07T01:25:22;3.90;99.90
25328;DHT22;13279;51.300;12.394;2023-04-07T01:28:01;3.90;99.90
25328;DHT22;13279;51.300;12.394;2023-04-07T01:30:37;3.90;99.90
25328;DHT22;13279;51.300;12.394;2023-04-07T01:33:08;3.90;99.90
25328;DHT22;13279;51.300;12.394;2023-04-07T01:35:36;3.90;99.90
25328;DHT22;13279;51.300;12.394;2023-04-07T01:38:07;3.90;99.90
25328;DHT22;13279;51.300;12.394;2023-04-07T01:40:36;3.90;99.90
25328;DHT22;13279;51.300;12.394;2023-04-07T01:43:05;3.90;99.90
25328;DHT22;13279;51.300;12.394;2023-04-07T01:45:35;3.90;99.90
25328;DHT22;13279;51.300;12.394;2023-04-07T01:48:05;3.90;99.90
25328;DHT22;13279;51.300;12.394;2023-04-07T01:50:33;3.90;99.90
25328;DHT22;13279;51.300;12.394;2023-04-07T01:53:02;3.80;99.90
25328;DHT22;13279;51.300;12.394;2023-04-07T01:55:31;3.80;99.90
25328;DHT22;13279;51.300;12.394;2023-04-07T01:58:05;3.80;99.90
25328;DHT22;13279;51.300;12.394;2023-04-07T02:00:36;3.70;99.90
25328;DHT22;13279;51.300;12.394;2023-04-07T02:03:13;3.70;99.90
25328;DHT22;13279;51.300;12.394;2023-04-07T02:05:47;3.60;99.90
25328;DHT22;13279;51.300;12.394;2023-04-07T02:08:17;3.60;99.90
25328;DHT22;13279;51.300;12.394;2023-04-07T02:10:47;3.50;99.90
25328;DHT22;13279;51.300;12.394;2023-04-07T02:13:18;3.50;99.90
25328;DHT22;13279;51.300;12.394;2023-04-07T02:15:50;3.50;99.90
25328;DHT22;13279;51.300;12.394;2023-04-07T02:18:21;3.50;99.90
25328;DHT22;13279;51.300;12.394;2023-04-07T02:20:50;3.40;99.90
25328;DHT22;13279;51.300;12.394;2023-04-07T02:23:18;3.30;99.90
25328;DHT22;13279;51.300;12.394;2023-04-07T02:25:45;3.20;99.90
25328;DHT22;13279;51.300;12.394;2023-04-07T02:28:13;3.10;99.90
25328;DHT22;13279;51.300;12.394;2023-04-07T02:30:44;3.10;99.90
25328;DHT22;13279;51.300;12.394;2023-04-07T02:33:13;3.10;99.90
25328;DHT22;13279;51.300;12.394;2023-04-07T02:35:43;3.10;99.90
25328;DHT22;13279;51.300;12.394;2023-04-07T02:38:11;3.10;99.90
25328;DHT22;13279;51.300;12.394;2023-04-07T02:40:38;3.10;99.90
25328;DHT22;13279;51.300;12.394;2023-04-07T02:43:06;3.10;99.90
25328;DHT22;13279;51.300;12.394;2023-04-07T02:45:33;3.10;99.90
25328;DHT22;13279;51.300;12.394;2023-04-07T02:48:03;2.90;99.90
25328;DHT22;13279;51.300;12.394;2023-04-07T02:50:32;3.00;99.90
25328;DHT22;13279;51.300;12.394;2023-04-07T02:52:59;3.00;99.90
25328;DHT22;13279;51.300;12.394;2023-04-07T02:55:30;3.00;99.90
25328;DHT22;13279;51.300;12.394;2023-04-07T02:57:57;3.00;99.90
25328;DHT22;13279;51.300;12.394;2023-04-07T03:00:41;2.90;99.90
25328;DHT22;13279;51.300;12.394;2023-04-07T03:03:19;2.90;99.90
25328;DHT22;13279;51.300;12.394;2023-04-07T03:06:01;2.90;99.90
25328;DHT22;13279;51.300;12.394;2023-04-07T03:08:29;2.90;99.90
25328;DHT22;13279;51.300;12.394;2023-04-07T03:10:57;2.90;99.90
25328;DHT22;13279;51.300;12.394;2023-04-07T03:13:28;2.90;99.90
25328;DHT22;13279;51.300;12.394;2023-04-07T03:15:56;2.90;99.90
25328;DHT22;13279;51.300;12.394;2023-04-07T03:18:28;3.00;99.90
25328;DHT22;13279;51.300;12.394;2023-04-07T03:21:01;3.10;99.90
25328;DHT22;13279;51.300;12.394;2023-04-07T03:23:29;3.10;99.90
25328;DHT22;13279;51.300;12.394;2023-04-07T03:25:58;3.20;99.90
25328;DHT22;13279;51.300;12.394;2023-04-07T03:28:30;3.20;99.90
25328;DHT22;13279;51.300;12.394;2023-04-07T03:30:59;3.20;99.90
25328;DHT22;13279;51.300;12.394;2023-04-07T03:33:27;3.30;99.90
25328;DHT22;13279;51.300;12.394;2023-04-07T03:35:55;3.30;99.90
25328;DHT22;13279;51.300;12.394;2023-04-07T03:38:25;3.30;99.90
25328;DHT22;13279;51.300;12.394;2023-04-07T03:40:57;3.30;99.90
25328;DHT22;13279;51.300;12.394;2023-04-07T03:43:24;3.30;99.90
25328;DHT22;13279;51.300;12.394;2023-04-07T03:45:52;3.30;99.90
25328;DHT22;13279;51.300;12.394;2023-04-07T03:48:22;3.20;99.90
25328;DHT22;13279;51.300;12.394;2023-04-07T03:51:05;3.20;99.90
25328;DHT22;13279;51.300;12.394;2023-04-07T03:53:35;3.20;99.90
25328;DHT22;13279;51.300;12.394;2023-04-07T03:56:14;3.20;99.90
25328;DHT22;13279;51.300;12.394;2023-04-07T03:58:45;3.20;99.90
25328;DHT22;13279;51.300;12.394;2023-04-07T04:01:25;3.10;99.90
25328;DHT22;13279;51.300;12.394;2023-04-07T04:03:54;3.10;99.90
25328;DHT22;13279;51.300;12.394;2023-04-07T04:06:29;3.10;99.90
25328;DHT22;13279;51.300;12.394;2023-04-07T04:09:31;3.00;99.90
25328;DHT22;13279;51.300;12.394;2023-04-07T04:11:58;3.00;99.90
25328;DHT22;13279;51.300;12.394;2023-04-07T04:14:26;3.00;99.90
25328;DHT22;13279;51.300;12.394;2023-04-07T04:16:58;3.00;99.90
25328;DHT22;13279;51.300;12.394;2023-04-07T04:19:37;2.90;99.90
25328;DHT22;13279;51.300;12.394;2023-04-07T04:22:13;2.90;99.90
25328;DHT22;13279;51.300;12.394;2023-04-07T04:24:52;2.90;99.90
25328;DHT22;13279;51.300;12.394;2023-04-07T04:27:22;2.90;99.90
25328;DHT22;13279;51.300;12.394;2023-04-07T04:29:56;2.80;99.90
25328;DHT22;13279;51.300;12.394;2023-04-07T04:32:34;2.80;99.90
25328;DHT22;13279;51.300;12.394;2023-04-07T04:35:02;2.80;99.90
25328;DHT22;13279;51.300;12.394;2023-04-07T04:37:33;2.70;99.90
25328;DHT22;13279;51.300;12.394;2023-04-07T04:40:05;2.70;99.90
25328;DHT22;13279;51.300;12.394;2023-04-07T04:42:35;2.60;99.90
25328;DHT22;13279;51.300;12.394;2023-04-07T04:45:04;2.60;99.90
25328;DHT22;13279;51.300;12.394;2023-04-07T04:47:32;2.50;99.90
25328;DHT22;13279;51.300;12.394;2023-04-07T04:50:02;2.40;99.90
25328;DHT22;13279;51.300;12.394;2023-04-07T04:52:33;2.40;99.90
25328;DHT22;13279;51.300;12.394;2023-04-07T04:55:01;2.40;99.90
25328;DHT22;13279;51.300;12.394;2023-04-07T04:57:30;2.30;99.90
25328;DHT22;13279;51.300;12.394;2023-04-07T05:00:00;2.30;99.90
25328;DHT22;13279;51.300;12.394;2023-04-07T05:02:27;2.30;99.90
25328;DHT22;13279;51.300;12.394;2023-04-07T05:04:55;2.30;99.90
25328;DHT22;13279;51.300;12.394;2023-04-07T05:07:26;2.30;99.90
25328;DHT22;13279;51.300;12.394;2023-04-07T05:09:55;2.40;99.90
25328;DHT22;13279;51.300;12.394;2023-04-07T05:12:23;2.40;99.90
25328;DHT22;13279;51.300;12.394;2023-04-07T05:14:58;2.50;99.90
25328;DHT22;13279;51.300;12.394;2023-04-07T05:17:25;2.50;99.90
25328;DHT22;13279;51.300;12.394;2023-04-07T05:19:53;2.50;99.90
25328;DHT22;13279;51.300;12.394;2023-04-07T05:22:33;2.50;99.90
25328;DHT22;13279;51.300;12.394;2023-04-07T05:25:03;2.50;99.90
25328;DHT22;13279;51.300;12.394;2023-04-07T05:27:31;2.50;99.90
25328;DHT22;13279;51.300;12.394;2023-04-07T05:30:06;2.60;99.90
25328;DHT22;13279;51.300;12.394;2023-04-07T05:32:35;2.60;99.90
25328;DHT22;13279;51.300;12.394;2023-04-07T05:35:09;2.70;99.90
25328;DHT22;13279;51.300;12.394;2023-04-07T05:37:42;2.70;99.90
25328;DHT22;13279;51.300;12.394;2023-04-07T05:40:11;2.70;99.90
25328;DHT22;13279;51.300;12.394;2023-04-07T05:42:38;2.60;99.90
25328;DHT22;13279;51.300;12.394;2023-04-07T05:45:09;2.60;99.90
25328;DHT22;13279;51.300;12.394;2023-04-07T05:47:41;2.60;99.90
25328;DHT22;13279;51.300;12.394;2023-04-07T05:50:10;2.60;99.90
25328;DHT22;13279;51.300;12.394;2023-04-07T05:52:40;2.50;99.90
25328;DHT22;13279;51.300;12.394;2023-04-07T05:55:18;2.70;99.90
25328;DHT22;13279;51.300;12.394;2023-04-07T05:57:48;2.60;99.90
25328;DHT22;13279;51.300;12.394;2023-04-07T06:00:21;2.70;99.90
25328;DHT22;13279;51.300;12.394;2023-04-07T06:02:59;2.70;99.90
25328;DHT22;13279;51.300;12.394;2023-04-07T06:05:29;2.80;99.90
25328;DHT22;13279;51.300;12.394;2023-04-07T06:07:56;2.80;99.90
25328;DHT22;13279;51.300;12.394;2023-04-07T06:10:26;2.80;99.90
25328;DHT22;13279;51.300;12.394;2023-04-07T06:12:53;2.90;99.90
25328;DHT22;13279;51.300;12.394;2023-04-07T06:15:23;2.90;99.90
25328;DHT22;13279;51.300;12.394;2023-04-07T06:17:50;3.00;99.90
25328;DHT22;13279;51.300;12.394;2023-04-07T06:20:17;3.00;99.90
25328;DHT22;13279;51.300;12.394;2023-04-07T06:22:46;3.10;99.90
25328;DHT22;13279;51.300;12.394;2023-04-07T06:25:14;3.10;99.90
25328;DHT22;13279;51.300;12.394;2023-04-07T06:27:42;3.20;99.90
25328;DHT22;13279;51.300;12.394;2023-04-07T06:30:10;3.20;99.90
25328;DHT22;13279;51.300;12.394;2023-04-07T06:32:39;3.40;99.90
25328;DHT22;13279;51.300;12.394;2023-04-07T06:35:08;3.60;99.90
25328;DHT22;13279;51.300;12.394;2023-04-07T06:37:35;3.80;99.90
25328;DHT22;13279;51.300;12.394;2023-04-07T06:40:05;4.10;99.90
25328;DHT22;13279;51.300;12.394;2023-04-07T06:42:33;4.30;99.90
25328;DHT22;13279;51.300;12.394;2023-04-07T06:45:16;4.50;99.90
25328;DHT22;13279;51.300;12.394;2023-04-07T06:47:45;4.70;99.90
25328;DHT22;13279;51.300;12.394;2023-04-07T06:50:13;4.90;99.90
25328;DHT22;13279;51.300;12.394;2023-04-07T06:52:42;5.10;99.90
25328;DHT22;13279;51.300;12.394;2023-04-07T06:55:10;5.30;99.90
25328;DHT22;13279;51.300;12.394;2023-04-07T06:57:38;5.40;99.90
25328;DHT22;13279;51.300;12.394;2023-04-07T07:00:07;5.50;99.90
25328;DHT22;13279;51.300;12.394;2023-04-07T07:02:35;5.60;99.90
25328;DHT22;13279;51.300;12.394;2023-04-07T07:05:05;5.70;99.90
25328;DHT22;13279;51.300;12.394;2023-04-07T07:07:33;5.90;99.90
25328;DHT22;13279;51.300;12.394;2023-04-07T07:10:00;6.10;99.90
25328;DHT22;13279;51.300;12.394;2023-04-07T07:12:30;6.20;99.90
25328;DHT22;13279;51.300;12.394;2023-04-07T07:14:58;6.50;99.90
25328;DHT22;13279;51.300;12.394;2023-04-07T07:17:26;6.70;99.90
25328;DHT22;13279;51.300;12.394;2023-04-07T07:19:53;6.80;99.90
25328;DHT22;13279;51.300;12.394;2023-04-07T07:22:23;7.00;99.90
25328;DHT22;13279;51.300;12.394;2023-04-07T07:24:51;7.10;99.90
25328;DHT22;13279;51.300;12.394;2023-04-07T07:27:19;7.00;99.90
25328;DHT22;13279;51.300;12.394;2023-04-07T07:29:46;7.00;99.90
25328;DHT22;13279;51.300;12.394;2023-04-07T07:32:14;7.00;99.90
25328;DHT22;13279;51.300;12.394;2023-04-07T07:34:41;6.90;99.90
25328;DHT22;13279;51.300;12.394;2023-04-07T07:37:09;6.90;99.90
25328;DHT22;13279;51.300;12.394;2023-04-07T07:39:38;7.00;99.90
25328;DHT22;13279;51.300;12.394;2023-04-07T07:42:06;7.20;99.90
25328;DHT22;13279;51.300;12.394;2023-04-07T07:44:34;7.40;99.90
25328;DHT22;13279;51.300;12.394;2023-04-07T07:47:01;7.70;99.90
25328;DHT22;13279;51.300;12.394;2023-04-07T07:49:29;7.80;99.90
25328;DHT22;13279;51.300;12.394;2023-04-07T07:51:56;7.90;99.90
25328;DHT22;13279;51.300;12.394;2023-04-07T07:54:25;8.00;99.90
25328;DHT22;13279;51.300;12.394;2023-04-07T07:56:53;8.20;99.90
25328;DHT22;13279;51.300;12.394;2023-04-07T07:59:21;8.40;99.90
25328;DHT22;13279;51.300;12.394;2023-04-07T08:01:51;8.70;99.90
25328;DHT22;13279;51.300;12.394;2023-04-07T08:04:19;8.80;99.90
25328;DHT22;13279;51.300;12.394;2023-04-07T08:06:48;8.90;99.90
25328;DHT22;13279;51.300;12.394;2023-04-07T08:09:16;9.00;99.90
25328;DHT22;13279;51.300;12.394;2023-04-07T08:11:43;9.20;99.90
25328;DHT22;13279;51.300;12.394;2023-04-07T08:14:14;9.20;99.90
25328;DHT22;13279;51.300;12.394;2023-04-07T08:16:42;9.20;99.90
25328;DHT22;13279;51.300;12.394;2023-04-07T08:19:10;9.30;99.90
25328;DHT22;13279;51.300;12.394;2023-04-07T08:24:52;9.20;99.90
25328;DHT22;13279;51.300;12.394;2023-04-07T08:27:20;9.30;99.90
25328;DHT22;13279;51.300;12.394;2023-04-07T08:29:58;9.50;99.90
25328;DHT22;13279;51.300;12.394;2023-04-07T08:32:32;9.70;99.90
25328;DHT22;13279;51.300;12.394;2023-04-07T08:35:00;9.70;99.90
25328;DHT22;13279;51.300;12.394;2023-04-07T08:37:27;9.80;99.90
25328;DHT22;13279;51.300;12.394;2023-04-07T08:39:55;9.70;99.90
25328;DHT22;13279;51.300;12.394;2023-04-07T08:42:25;9.70;99.90
25328;DHT22;13279;51.300;12.394;2023-04-07T08:44:55;9.70;99.90
25328;DHT22;13279;51.300;12.394;2023-04-07T08:47:25;9.90;99.90
25328;DHT22;13279;51.300;12.394;2023-04-07T08:49:56;10.00;99.90
25328;DHT22;13279;51.300;12.394;2023-04-07T08:52:32;10.20;99.90
25328;DHT22;13279;51.300;12.394;2023-04-07T08:55:00;10.30;99.90
25328;DHT22;13279;51.300;12.394;2023-04-07T08:57:32;10.50;99.90
25328;DHT22;13279;51.300;12.394;2023-04-07T09:00:01;10.50;99.90
25328;DHT22;13279;51.300;12.394;2023-04-07T09:02:32;10.50;99.90
25328;DHT22;13279;51.300;12.394;2023-04-07T09:05:01;10.70;99.90
25328;DHT22;13279;51.300;12.394;2023-04-07T09:07:30;10.80;99.90
25328;DHT22;13279;51.300;12.394;2023-04-07T09:09:57;10.60;99.90
25328;DHT22;13279;51.300;12.394;2023-04-07T09:12:26;10.50;99.90
25328;DHT22;13279;51.300;12.394;2023-04-07T09:14:53;10.50;99.90
25328;DHT22;13279;51.300;12.394;2023-04-07T09:17:24;10.70;99.90
25328;DHT22;13279;51.300;12.394;2023-04-07T09:19:52;10.80;99.90
25328;DHT22;13279;51.300;12.394;2023-04-07T09:22:36;10.90;99.90
25328;DHT22;13279;51.300;12.394;2023-04-07T09:25:15;11.00;99.90
25328;DHT22;13279;51.300;12.394;2023-04-07T09:27:57;10.90;99.90
25328;DHT22;13279;51.300;12.394;2023-04-07T09:30:29;11.10;99.90
25328;DHT22;13279;51.300;12.394;2023-04-07T09:33:01;11.10;99.90
25328;DHT22;13279;51.300;12.394;2023-04-07T09:35:30;11.20;99.90
25328;DHT22;13279;51.300;12.394;2023-04-07T09:38:08;11.50;99.90
25328;DHT22;13279;51.300;12.394;2023-04-07T09:40:36;11.40;99.90
25328;DHT22;13279;51.300;12.394;2023-04-07T09:43:04;11.40;99.90
25328;DHT22;13279;51.300;12.394;2023-04-07T09:45:32;11.30;99.90
25328;DHT22;13279;51.300;12.394;2023-04-07T09:48:06;11.50;99.90
25328;DHT22;13279;51.300;12.394;2023-04-07T09:50:34;11.80;99.90
25328;DHT22;13279;51.300;12.394;2023-04-07T09:53:02;11.70;99.90
25328;DHT22;13279;51.300;12.394;2023-04-07T09:55:30;11.70;99.90
25328;DHT22;13279;51.300;12.394;2023-04-07T09:57:59;11.90;99.90
25328;DHT22;13279;51.300;12.394;2023-04-07T10:00:27;12.00;99.90
25328;DHT22;13279;51.300;12.394;2023-04-07T10:02:54;12.20;99.90
25328;DHT22;13279;51.300;12.394;2023-04-07T10:05:24;12.10;99.90
25328;DHT22;13279;51.300;12.394;2023-04-07T10:07:52;12.20;99.90
25328;DHT22;13279;51.300;12.394;2023-04-07T10:10:20;12.20;99.90
25328;DHT22;13279;51.300;12.394;2023-04-07T10:12:49;12.20;99.60
25328;DHT22;13279;51.300;12.394;2023-04-07T10:15:20;12.30;98.10
25328;DHT22;13279;51.300;12.394;2023-04-07T10:17:48;12.30;98.30
25328;DHT22;13279;51.300;12.394;2023-04-07T10:20:17;12.40;97.20
25328;DHT22;13279;51.300;12.394;2023-04-07T10:22:48;12.50;97.30
25328;DHT22;13279;51.300;12.394;2023-04-07T10:25:18;12.20;98.40
25328;DHT22;13279;51.300;12.394;2023-04-07T10:27:49;12.40;97.80
25328;DHT22;13279;51.300;12.394;2023-04-07T10:30:22;12.60;96.70
25328;DHT22;13279;51.300;12.394;2023-04-07T10:32:53;12.30;97.40
25328;DHT22;13279;51.300;12.394;2023-04-07T10:35:21;12.20;97.00
25328;DHT22;13279;51.300;12.394;2023-04-07T10:38:11;12.20;96.80
25328;DHT22;13279;51.300;12.394;2023-04-07T10:40:41;12.00;96.90
25328;DHT22;13279;51.300;12.394;2023-04-07T10:43:09;12.00;96.50
25328;DHT22;13279;51.300;12.394;2023-04-07T10:45:56;11.90;96.40
25328;DHT22;13279;51.300;12.394;2023-04-07T10:48:26;11.70;97.20
25328;DHT22;13279;51.300;12.394;2023-04-07T10:51:12;11.90;97.00
25328;DHT22;13279;51.300;12.394;2023-04-07T10:57:05;12.50;96.20
25328;DHT22;13279;51.300;12.394;2023-04-07T10:59:36;12.40;96.30
25328;DHT22;13279;51.300;12.394;2023-04-07T11:02:31;12.50;96.60
25328;DHT22;13279;51.300;12.394;2023-04-07T11:05:00;12.40;98.20
25328;DHT22;13279;51.300;12.394;2023-04-07T11:10:27;12.30;97.60
25328;DHT22;13279;51.300;12.394;2023-04-07T11:13:05;12.70;97.30
25328;DHT22;13279;51.300;12.394;2023-04-07T11:15:34;12.80;97.00
25328;DHT22;13279;51.300;12.394;2023-04-07T11:18:16;12.30;97.80
25328;DHT22;13279;51.300;12.394;2023-04-07T11:20:46;12.60;97.60
25328;DHT22;13279;51.300;12.394;2023-04-07T11:23:15;12.60;97.70
25328;DHT22;13279;51.300;12.394;2023-04-07T11:25:45;12.70;96.60
25328;DHT22;13279;51.300;12.394;2023-04-07T11:28:15;12.80;96.70
25328;DHT22;13279;51.300;12.394;2023-04-07T11:30:47;12.80;96.70
25328;DHT22;13279;51.300;12.394;2023-04-07T11:33:18;13.20;96.20
25328;DHT22;13279;51.300;12.394;2023-04-07T11:35:52;13.30;96.30
25328;DHT22;13279;51.300;12.394;2023-04-07T11:38:21;13.50;96.20
25328;DHT22;13279;51.300;12.394;2023-04-07T11:40:49;13.50;96.70
25328;DHT22;13279;51.300;12.394;2023-04-07T11:43:19;13.80;97.90
25328;DHT22;13279;51.300;12.394;2023-04-07T11:46:02;13.90;96.80
25328;DHT22;13279;51.300;12.394;2023-04-07T11:48:32;13.80;96.20
25328;DHT22;13279;51.300;12.394;2023-04-07T11:51:01;14.00;96.80
25328;DHT22;13279;51.300;12.394;2023-04-07T11:53:30;14.10;96.90
25328;DHT22;13279;51.300;12.394;2023-04-07T11:55:59;14.30;96.70
25328;DHT22;13279;51.300;12.394;2023-04-07T11:58:28;14.40;97.00
25328;DHT22;13279;51.300;12.394;2023-04-07T12:00:56;14.50;95.70
25328;DHT22;13279;51.300;12.394;2023-04-07T12:03:24;14.20;95.20
25328;DHT22;13279;51.300;12.394;2023-04-07T12:05:52;13.90;94.90
25328;DHT22;13279;51.300;12.394;2023-04-07T12:08:19;13.50;94.50
25328;DHT22;13279;51.300;12.394;2023-04-07T12:10:47;13.50;96.20
25328;DHT22;13279;51.300;12.394;2023-04-07T12:13:14;13.60;95.70
25328;DHT22;13279;51.300;12.394;2023-04-07T12:15:44;13.80;95.10
25328;DHT22;13279;51.300;12.394;2023-04-07T12:18:14;14.00;94.70
25328;DHT22;13279;51.300;12.394;2023-04-07T12:20:44;14.00;93.70
25328;DHT22;13279;51.300;12.394;2023-04-07T12:23:11;13.80;94.60
25328;DHT22;13279;51.300;12.394;2023-04-07T12:25:39;13.60;93.60
25328;DHT22;13279;51.300;12.394;2023-04-07T12:28:06;13.40;93.20
25328;DHT22;13279;51.300;12.394;2023-04-07T12:30:34;13.50;92.30
25328;DHT22;13279;51.300;12.394;2023-04-07T12:33:04;13.60;92.90
25328;DHT22;13279;51.300;12.394;2023-04-07T12:35:32;13.60;92.40
25328;DHT22;13279;51.300;12.394;2023-04-07T12:38:00;13.60;91.80
25328;DHT22;13279;51.300;12.394;2023-04-07T12:40:27;13.40;92.80
25328;DHT22;13279;51.300;12.394;2023-04-07T12:42:55;13.50;92.30
25328;DHT22;13279;51.300;12.394;2023-04-07T12:45:23;13.50;92.80
25328;DHT22;13279;51.300;12.394;2023-04-07T12:47:50;13.70;92.40
25328;DHT22;13279;51.300;12.394;2023-04-07T12:50:19;13.70;92.10
25328;DHT22;13279;51.300;12.394;2023-04-07T12:52:46;13.70;92.30
25328;DHT22;13279;51.300;12.394;2023-04-07T12:55:14;13.70;92.30
25328;DHT22;13279;51.300;12.394;2023-04-07T12:57:42;13.30;91.90
25328;DHT22;13279;51.300;12.394;2023-04-07T13:00:13;13.30;92.30
25328;DHT22;13279;51.300;12.394;2023-04-07T13:02:41;13.00;92.30
25328;DHT22;13279;51.300;12.394;2023-04-07T13:05:08;12.90;92.50
25328;DHT22;13279;51.300;12.394;2023-04-07T13:07:38;13.10;92.80
25328;DHT22;13279;51.300;12.394;2023-04-07T13:10:07;13.50;93.10
25328;DHT22;13279;51.300;12.394;2023-04-07T13:12:34;13.50;91.60
25328;DHT22;13279;51.300;12.394;2023-04-07T13:15:02;13.50;91.70
25328;DHT22;13279;51.300;12.394;2023-04-07T13:17:29;13.50;91.00
25328;DHT22;13279;51.300;12.394;2023-04-07T13:19:57;13.40;91.60
25328;DHT22;13279;51.300;12.394;2023-04-07T13:22:24;13.70;91.90
25328;DHT22;13279;51.300;12.394;2023-04-07T13:24:54;14.20;92.40
25328;DHT22;13279;51.300;12.394;2023-04-07T13:27:23;14.70;91.20
25328;DHT22;13279;51.300;12.394;2023-04-07T13:29:52;14.90;91.40
25328;DHT22;13279;51.300;12.394;2023-04-07T13:32:21;14.90;91.20
25328;DHT22;13279;51.300;12.394;2023-04-07T13:34:49;15.40;90.20
25328;DHT22;13279;51.300;12.394;2023-04-07T13:37:19;15.50;90.60
25328;DHT22;13279;51.300;12.394;2023-04-07T13:39:46;15.70;89.90
25328;DHT22;13279;51.300;12.394;2023-04-07T13:42:15;15.90;88.00
25328;DHT22;13279;51.300;12.394;2023-04-07T13:44:44;15.90;87.40
25328;DHT22;13279;51.300;12.394;2023-04-07T13:47:13;15.80;87.00
25328;DHT22;13279;51.300;12.394;2023-04-07T13:49:45;15.90;87.80
25328;DHT22;13279;51.300;12.394;2023-04-07T13:52:13;16.30;86.60
25328;DHT22;13279;51.300;12.394;2023-04-07T13:54:44;16.70;86.00
25328;DHT22;13279;51.300;12.394;2023-04-07T13:57:12;16.50;83.70
25328;DHT22;13279;51.300;12.394;2023-04-07T13:59:48;16.60;83.60
25328;DHT22;13279;51.300;12.394;2023-04-07T14:02:17;16.10;84.60
25328;DHT22;13279;51.300;12.394;2023-04-07T14:04:44;15.30;87.00
25328;DHT22;13279;51.300;12.394;2023-04-07T14:07:12;15.10;87.10
25328;DHT22;13279;51.300;12.394;2023-04-07T14:09:39;15.90;86.00
25328;DHT22;13279;51.300;12.394;2023-04-07T14:12:08;16.40;87.40
25328;DHT22;13279;51.300;12.394;2023-04-07T14:14:36;16.90;86.30
25328;DHT22;13279;51.300;12.394;2023-04-07T14:17:05;17.30;84.00
25328;DHT22;13279;51.300;12.394;2023-04-07T14:19:33;17.20;85.30
25328;DHT22;13279;51.300;12.394;2023-04-07T14:22:00;17.40;83.00
25328;DHT22;13279;51.300;12.394;2023-04-07T14:24:28;17.10;83.70
25328;DHT22;13279;51.300;12.394;2023-04-07T14:26:55;17.60;82.30
25328;DHT22;13279;51.300;12.394;2023-04-07T14:29:23;17.30;82.60
25328;DHT22;13279;51.300;12.394;2023-04-07T14:31:50;16.80;84.50
25328;DHT22;13279;51.300;12.394;2023-04-07T14:34:19;17.00;83.90
25328;DHT22;13279;51.300;12.394;2023-04-07T14:36:52;16.00;84.70
25328;DHT22;13279;51.300;12.394;2023-04-07T14:39:20;15.70;86.90
25328;DHT22;13279;51.300;12.394;2023-04-07T14:41:49;15.80;84.70
25328;DHT22;13279;51.300;12.394;2023-04-07T14:44:16;16.20;85.40
25328;DHT22;13279;51.300;12.394;2023-04-07T14:46:45;16.80;86.20
25328;DHT22;13279;51.300;12.394;2023-04-07T14:49:13;16.90;83.50
25328;DHT22;13279;51.300;12.394;2023-04-07T14:51:42;16.90;84.20
25328;DHT22;13279;51.300;12.394;2023-04-07T14:54:10;16.80;82.70
25328;DHT22;13279;51.300;12.394;2023-04-07T14:56:38;16.50;82.30
25328;DHT22;13279;51.300;12.394;2023-04-07T14:59:10;16.30;82.70
25328;DHT22;13279;51.300;12.394;2023-04-07T15:01:37;16.30;82.30
25328;DHT22;13279;51.300;12.394;2023-04-07T15:04:05;16.40;81.50
25328;DHT22;13279;51.300;12.394;2023-04-07T15:06:33;16.60;81.50
25328;DHT22;13279;51.300;12.394;2023-04-07T15:09:02;16.60;82.00
25328;DHT22;13279;51.300;12.394;2023-04-07T15:11:29;16.80;82.20
25328;DHT22;13279;51.300;12.394;2023-04-07T15:13:57;16.20;80.80
25328;DHT22;13279;51.300;12.394;2023-04-07T15:16:26;16.30;84.00
25328;DHT22;13279;51.300;12.394;2023-04-07T15:18:53;16.30;82.10
25328;DHT22;13279;51.300;12.394;2023-04-07T15:21:21;16.10;81.20
25328;DHT22;13279;51.300;12.394;2023-04-07T15:23:49;15.90;82.50
25328;DHT22;13279;51.300;12.394;2023-04-07T15:26:20;15.80;82.40
25328;DHT22;13279;51.300;12.394;2023-04-07T15:28:47;15.80;82.40
25328;DHT22;13279;51.300;12.394;2023-04-07T15:31:16;15.90;82.40
25328;DHT22;13279;51.300;12.394;2023-04-07T15:33:46;15.40;82.00
25328;DHT22;13279;51.300;12.394;2023-04-07T15:36:14;15.30;82.30
25328;DHT22;13279;51.300;12.394;2023-04-07T15:38:42;14.90;83.60
25328;DHT22;13279;51.300;12.394;2023-04-07T15:41:13;14.90;82.90
25328;DHT22;13279;51.300;12.394;2023-04-07T15:43:55;14.80;82.70
25328;DHT22;13279;51.300;12.394;2023-04-07T15:46:35;14.70;82.90
25328;DHT22;13279;51.300;12.394;2023-04-07T15:49:15;14.90;83.50
25328;DHT22;13279;51.300;12.394;2023-04-07T15:52:06;15.10;82.10